Time;durP1;ratioP1;P1;durP2;ratioP2;P2;SDS_P1;SDS_P2;PMS_P1;PMS_P2;Temp;Humidity;BMP_temperature;BMP_pressure;BME280_temperature;BME280_humidity;BME280_pressure;Samples;Min_cycle;Max_cycle;Signal;HPM_P1;HPM_P2
2023/01/12 00:02:07;;;;;;;98.90;58.65;;;128.90;1894.40;;;;;;4919607;29;20075;-90
2023/01/12 00:04:33;;;;;;;88.38;55.67;;;128.90;2252.80;;;;;;4919596;29;20036;-92
2023/01/12 00:06:59;;;;;;;73.63;44.50;;;128.70;2252.80;;;;;;4919087;29;20388;-91
2023/01/12 00:09:26;;;;;;;67.22;42.22;;;128.60;2252.80;;;;;;4922351;29;20032;-92
2023/01/12 00:11:56;;;;;;;87.70;51.30;;;128.50;2252.80;;;;;;4922335;29;20024;-93
2023/01/12 00:14:23;;;;;;;85.50;54.92;;;128.50;2252.80;;;;;;4907911;29;20057;-92
2023/01/12 00:16:52;;;;;;;86.10;53.70;;;128.50;2252.80;;;;;;4939359;29;20036;-93
2023/01/12 00:19:21;;;;;;;81.75;48.78;;;128.40;2252.80;;;;;;4939420;29;20035;-92
2023/01/12 00:22:19;;;;;;;98.18;62.60;;;128.40;2252.80;;;;;;4922421;29;20044;-93
2023/01/12 00:24:48;;;;;;;79.18;47.72;;;128.30;2252.80;;;;;;4939494;29;20114;-93
2023/01/12 00:27:19;;;;;;;69.63;41.00;;;128.40;2252.80;;;;;;4922909;29;20436;-90
2023/01/12 00:29:46;;;;;;;64.65;39.47;;;128.40;2252.80;;;;;;4939338;29;20036;-92
2023/01/12 00:32:15;;;;;;;60.03;38.95;;;128.90;2252.80;;;;;;4907763;29;20495;-92
2023/01/12 00:34:42;;;;;;;59.05;35.00;;;128.40;2252.80;;;;;;4939454;29;20038;-92
2023/01/12 00:37:08;;;;;;;67.32;42.97;;;128.50;2252.80;;;;;;4922797;29;20071;-94
2023/01/12 00:39:50;;;;;;;62.47;35.80;;;128.30;2252.80;;;;;;4940653;29;20066;-93
2023/01/12 00:47:49;;;;;;;65.68;40.78;;;;;;;;;;4919473;29;20119;-92
2023/01/12 00:50:15;;;;;;;66.85;40.45;;;128.90;2252.80;;;;;;4919427;29;20038;-92
2023/01/12 00:52:41;;;;;;;78.80;47.28;;;128.70;2252.80;;;;;;4919261;29;20119;-92
2023/01/12 00:55:08;;;;;;;70.65;42.92;;;128.80;2252.80;;;;;;4888402;29;20036;-92
2023/01/12 00:57:34;;;;;;;90.55;56.78;;;128.60;2252.80;;;;;;4888098;29;20032;-93
2023/01/12 01:00:14;;;;;;;114.43;68.03;;;128.60;2252.80;;;;;;4919637;29;20028;-93
2023/01/12 01:02:53;;;;;;;86.30;50.70;;;128.60;2252.80;;;;;;4920368;29;20087;-93
2023/01/12 01:05:20;;;;;;;90.60;53.78;;;128.80;2252.80;;;;;;4902783;29;20041;-93
2023/01/12 01:07:46;;;;;;;78.53;47.63;;;128.90;2252.80;;;;;;4902953;29;20484;-92
2023/01/12 01:10:13;;;;;;;69.25;43.22;;;128.90;1894.40;;;;;;4918636;29;20450;-93
2023/01/12 01:12:40;;;;;;;74.28;43.10;;;153.60;2252.80;;;;;;4918441;29;20114;-92
2023/01/12 01:15:07;;;;;;;65.53;38.67;;;153.70;2252.80;;;;;;4918504;29;20066;-93
2023/01/12 01:17:33;;;;;;;62.58;38.00;;;153.70;2252.80;;;;;;4918542;29;20032;-93
2023/01/12 01:20:00;;;;;;;70.72;42.50;;;;;;;;;;4918477;29;20035;-94
2023/01/12 01:22:26;;;;;;;85.45;49.08;;;154.00;2252.80;;;;;;4926916;29;20035;-92
2023/01/12 01:24:53;;;;;;;79.70;44.85;;;153.70;2252.80;;;;;;4918881;29;20133;-92
2023/01/12 01:27:18;;;;;;;59.92;35.50;;;153.80;2252.80;;;;;;4918181;29;20497;-92
2023/01/12 01:29:45;;;;;;;56.10;34.17;;;153.80;2252.80;;;;;;4918375;29;20024;-93
2023/01/12 01:32:11;;;;;;;62.80;38.10;;;153.90;2252.80;;;;;;4918158;29;20051;-92
2023/01/12 01:34:36;;;;;;;75.82;43.30;;;153.80;2252.80;;;;;;4918310;29;20024;-92
2023/01/12 01:37:03;;;;;;;65.32;39.90;;;153.80;2252.80;;;;;;4918177;29;20451;-91
2023/01/12 01:39:29;;;;;;;57.22;35.97;;;154.20;2252.80;;;;;;4902187;29;20103;-92
2023/01/12 01:41:55;;;;;;;62.92;37.85;;;153.80;2252.80;;;;;;4886674;29;20047;-92
2023/01/12 01:45:11;;;;;;;46.45;30.00;;;153.80;2252.80;;;;;;4902205;29;20028;-92
2023/01/12 01:48:06;;;;;;;41.72;27.05;;;153.70;2252.80;;;;;;4933475;29;20028;-92
2023/01/12 01:50:39;;;;;;;41.20;25.58;;;153.60;2252.80;;;;;;4919902;29;20047;-92
2023/01/12 01:53:17;;;;;;;35.73;21.60;;;153.70;2252.80;;;;;;4918772;29;20028;-93
2023/01/12 01:55:51;;;;;;;31.70;20.48;;;153.70;2252.80;;;;;;4918899;29;20484;-92
2023/01/12 01:58:47;;;;;;;36.80;23.25;;;153.70;2252.80;;;;;;4902168;29;20068;-92
2023/01/12 02:01:15;;;;;;;47.38;29.10;;;153.70;2252.80;;;;;;4918408;29;20029;-92
2023/01/12 02:03:44;;;;;;;64.43;40.47;;;153.80;2252.80;;;;;;4918516;29;20509;-93
2023/01/12 02:06:11;;;;;;;81.00;54.22;;;153.70;2252.80;;;;;;4901836;29;20388;-93
2023/01/12 02:17:58;;;;;;;71.45;44.25;;;128.60;2252.80;;;;;;4941943;29;20031;-92
2023/01/12 02:24:13;;;;;;;64.93;39.55;;;128.90;2176.00;;;;;;4940271;29;20043;-93
2023/01/12 02:27:43;;;;;;;57.90;35.95;;;128.80;2252.80;;;;;;4939848;29;20015;-92
2023/01/12 02:34:26;;;;;;;61.90;39.37;;;128.80;2252.80;;;;;;4882204;29;20132;-92
2023/01/12 02:37:45;;;;;;;84.93;49.92;;;128.60;2252.80;;;;;;4915690;29;20058;-91
2023/01/12 02:44:46;;;;;;;56.83;35.92;;;128.60;2252.80;;;;;;4841611;29;20353;-92
2023/01/12 02:47:55;;;;;;;57.13;33.33;;;128.80;2252.80;;;;;;4841786;29;20542;-93
2023/01/12 02:51:13;;;;;;;53.15;34.17;;;128.90;2252.80;;;;;;4840599;29;20521;-92
2023/01/12 02:57:00;;;;;;;50.92;29.95;;;128.80;2252.80;;;;;;4917990;29;20048;-92
2023/01/12 02:59:33;;;;;;;58.50;34.83;;;128.90;2252.80;;;;;;4916111;29;20040;-92
2023/01/12 03:02:10;;;;;;;59.10;38.67;;;128.90;2252.80;;;;;;4916968;29;20024;-93
2023/01/12 03:04:36;;;;;;;58.35;36.47;;;128.90;2252.80;;;;;;4916727;29;20024;-94
2023/01/12 03:07:02;;;;;;;63.08;40.17;;;153.70;2252.80;;;;;;4916997;29;20479;-91
2023/01/12 03:09:43;;;;;;;59.08;37.08;;;153.80;2252.80;;;;;;4917009;29;20032;-92
2023/01/12 03:12:21;;;;;;;59.97;38.17;;;153.80;2252.80;;;;;;4917318;29;20032;-93
2023/01/12 03:14:51;;;;;;;67.35;42.78;;;153.90;2252.80;;;;;;4917107;29;20028;-92
2023/01/12 03:17:39;;;;;;;67.18;39.90;;;154.00;2252.80;;;;;;4918007;29;20032;-92
2023/01/12 03:20:27;;;;;;;64.10;38.13;;;153.80;2252.80;;;;;;4903315;29;20051;-92
2023/01/12 03:23:26;;;;;;;45.40;31.10;;;153.70;2252.80;;;;;;4917890;29;20031;-94
2023/01/12 03:26:04;;;;;;;31.95;20.42;;;128.90;2252.80;;;;;;4918080;29;20024;-93
2023/01/12 03:43:48;;;;;;;14.32;10.05;;;128.60;2252.80;;;;;;4937873;29;20082;-90
2023/01/12 03:47:21;;;;;;;16.48;9.23;;;128.70;2252.80;;;;;;4936657;29;20078;-91
2023/01/12 03:51:01;;;;;;;15.07;9.80;;;128.70;2252.80;;;;;;4919397;29;20032;-91
2023/01/12 03:54:42;;;;;;;18.33;12.40;;;128.60;2252.80;;;;;;4825682;29;20125;-92
2023/01/12 03:57:51;;;;;;;15.13;10.82;;;128.60;2252.80;;;;;;4892024;29;20119;-91
2023/01/12 04:01:23;;;;;;;18.13;10.02;;;128.50;2252.80;;;;;;4863237;29;20034;-91
2023/01/12 04:15:25;;;;;;;22.37;13.30;;;128.50;2252.80;;;;;;4848358;29;20044;-92
2023/01/12 04:19:13;;;;;;;32.38;19.52;;;128.60;2252.80;;;;;;4861379;29;20074;-91
2023/01/12 04:24:44;;;;;;;27.45;15.93;;;128.90;2252.80;;;;;;4867943;29;20188;-92
2023/01/12 04:27:11;;;;;;;26.70;17.20;;;128.90;2252.80;;;;;;4886274;29;20041;-92
2023/01/12 04:29:39;;;;;;;28.10;18.08;;;128.90;2252.80;;;;;;4884102;29;20025;-92
2023/01/12 04:32:10;;;;;;;29.17;17.25;;;153.60;2252.80;;;;;;4903454;29;20040;-92
2023/01/12 04:37:32;;;;;;;27.08;16.45;;;128.90;2252.80;;;;;;4925269;29;20404;-92
2023/01/12 04:39:59;;;;;;;30.02;17.40;;;128.80;2252.80;;;;;;4906402;29;20047;-92
2023/01/12 04:45:09;;;;;;;24.65;16.15;;;128.80;2252.80;;;;;;4939296;29;20098;-91
2023/01/12 04:47:35;;;;;;;30.80;18.77;;;128.80;2252.80;;;;;;4922066;29;20063;-92
2023/01/12 04:50:03;;;;;;;24.90;15.88;;;128.80;2252.80;;;;;;4922467;29;20111;-92
2023/01/12 04:52:45;;;;;;;22.92;15.52;;;128.70;2252.80;;;;;;4906431;29;20038;-92
2023/01/12 04:55:31;;;;;;;26.20;15.70;;;128.70;2252.80;;;;;;4939210;29;20086;-92
2023/01/12 04:57:59;;;;;;;21.02;14.40;;;128.70;2252.80;;;;;;4906148;29;20043;-94
2023/01/12 05:00:26;;;;;;;26.65;17.13;;;128.70;2252.80;;;;;;4938856;29;20476;-95
2023/01/12 05:02:58;;;;;;;29.65;18.98;;;128.90;2252.80;;;;;;4938708;29;20020;-93
2023/01/12 05:05:25;;;;;;;27.27;17.02;;;128.80;2252.80;;;;;;4924718;29;20059;-94
2023/01/12 05:10:38;;;;;;;34.88;20.05;;;153.70;2252.80;;;;;;4938620;29;20047;-93
2023/01/12 05:13:04;;;;;;;24.77;16.92;;;128.90;2252.80;;;;;;4904991;29;20063;-93
2023/01/12 05:15:32;;;;;;;27.60;18.25;;;153.60;2252.80;;;;;;4938743;29;20035;-92
2023/01/12 05:21:31;;;;;;;24.80;17.05;;;153.60;2252.80;;;;;;4924089;29;20036;-92
2023/01/12 05:24:23;;;;;;;33.45;20.38;;;128.90;2252.80;;;;;;4928927;29;20024;-93
2023/01/12 05:26:59;;;;;;;43.80;25.80;;;153.60;2252.80;;;;;;4917085;29;20519;-92
2023/01/12 05:29:25;;;;;;;43.97;25.77;;;153.70;2252.80;;;;;;4940422;29;20551;-93
2023/01/12 05:31:51;;;;;;;58.70;36.42;;;153.70;2252.80;;;;;;4940471;29;20024;-92
2023/01/12 05:34:18;;;;;;;40.95;26.42;;;153.60;2252.80;;;;;;4924593;29;20166;-93
2023/01/12 05:36:48;;;;;;;38.00;22.05;;;128.90;2252.80;;;;;;4924483;29;20032;-92
2023/01/12 05:39:27;;;;;;;41.63;24.40;;;128.70;2252.80;;;;;;4936865;29;20071;-92
2023/01/12 05:48:32;;;;;;;54.63;31.20;;;128.40;2252.80;;;;;;4938371;29;20551;-92
2023/01/12 05:51:05;;;;;;;48.67;30.52;;;128.60;2252.80;;;;;;4936587;29;20072;-93
2023/01/12 05:53:43;;;;;;;50.55;28.95;;;128.70;2252.80;;;;;;4936857;29;20038;-93
2023/01/12 05:59:51;;;;;;;43.58;29.33;;;128.50;2252.80;;;;;;4924295;29;20058;-94
2023/01/12 06:02:25;;;;;;;51.60;30.02;;;128.50;2252.80;;;;;;4935018;29;20118;-95
2023/01/12 06:04:55;;;;;;;43.33;28.05;;;128.70;2252.80;;;;;;4937571;29;20164;-92
2023/01/12 06:07:25;;;;;;;43.90;27.75;;;128.80;2073.60;;;;;;4937917;29;20023;-93
2023/01/12 06:09:54;;;;;;;50.85;32.05;;;128.80;2252.80;;;;;;4936506;29;20044;-93
2023/01/12 06:15:05;;;;;;;47.25;32.08;;;128.90;2252.80;;;;;;4937295;29;20030;-92
2023/01/12 06:17:31;;;;;;;41.63;26.98;;;128.90;2252.80;;;;;;4936230;29;20126;-92
2023/01/12 06:19:57;;;;;;;36.70;25.33;;;128.80;2252.80;;;;;;4936308;29;20521;-93
2023/01/12 06:22:25;;;;;;;44.17;27.35;;;128.90;2252.80;;;;;;4936329;29;20114;-92
2023/01/12 06:24:53;;;;;;;46.60;30.50;;;153.60;2252.80;;;;;;4935941;29;20043;-91
2023/01/12 06:27:19;;;;;;;46.92;30.30;;;153.60;2252.80;;;;;;4936306;29;20063;-92
2023/01/12 06:29:45;;;;;;;44.40;31.45;;;153.60;2252.80;;;;;;4936172;29;20079;-92
2023/01/12 06:32:11;;;;;;;47.03;31.13;;;153.60;2252.80;;;;;;4935960;29;20032;-93
2023/01/12 06:34:37;;;;;;;42.97;28.38;;;153.60;2252.80;;;;;;4936093;29;20049;-93
2023/01/12 06:37:03;;;;;;;38.90;25.27;;;128.90;2252.80;;;;;;4937482;28;20032;-93
2023/01/12 06:39:30;;;;;;;45.47;30.08;;;128.90;2099.20;;;;;;4939867;29;20042;-92
2023/01/12 06:44:40;;;;;;;64.75;41.90;;;128.90;2252.80;;;;;;4956877;29;20042;-92
2023/01/12 06:47:06;;;;;;;61.22;38.55;;;128.80;2252.80;;;;;;4939491;29;20391;-92
2023/01/12 06:49:32;;;;;;;70.55;40.30;;;128.80;2252.80;;;;;;4923468;29;20391;-94
2023/01/12 06:52:00;;;;;;;84.45;51.40;;;128.80;2252.80;;;;;;4937802;29;20134;-92
2023/01/12 06:54:29;;;;;;;80.68;49.45;;;128.80;2252.80;;;;;;4923700;29;20043;-93
2023/01/12 06:56:57;;;;;;;99.03;58.33;;;128.80;2176.00;;;;;;4924104;29;20487;-92
2023/01/12 06:59:31;;;;;;;65.35;43.60;;;128.80;2252.80;;;;;;4924911;29;20031;-92
2023/01/12 07:02:03;;;;;;;143.02;90.72;;;128.80;2252.80;;;;;;4940019;29;20030;-93
2023/01/12 07:04:31;;;;;;;106.82;66.35;;;128.60;2252.80;;;;;;4940437;29;20475;-93
2023/01/12 07:06:57;;;;;;;109.75;68.45;;;128.80;2252.80;;;;;;4923407;29;20042;-94
2023/01/12 07:09:23;;;;;;;87.85;56.63;;;128.80;2252.80;;;;;;4939118;29;20055;-93
2023/01/12 07:11:52;;;;;;;80.15;50.45;;;128.60;2252.80;;;;;;4923269;29;20032;-93
2023/01/12 07:14:20;;;;;;;66.68;47.05;;;128.60;2252.80;;;;;;4939256;29;20035;-93
2023/01/12 07:16:51;;;;;;;76.03;50.00;;;128.60;2252.80;;;;;;4956066;29;20027;-92
2023/01/12 07:19:17;;;;;;;84.88;54.08;;;128.50;2252.80;;;;;;4923280;29;20545;-92
2023/01/12 07:21:46;;;;;;;97.78;63.75;;;128.70;2252.80;;;;;;4923084;29;20055;-93
2023/01/12 07:24:24;;;;;;;82.78;51.85;;;128.70;2252.80;;;;;;4914681;29;20095;-93
2023/01/12 07:27:15;;;;;;;80.70;51.83;;;128.50;2252.80;;;;;;4926623;29;20094;-93
2023/01/12 07:30:23;;;;;;;84.35;54.13;;;128.40;2252.80;;;;;;4914185;29;20380;-93
2023/01/12 07:33:38;;;;;;;87.18;55.00;;;128.40;2252.80;;;;;;4938571;29;20369;-94
2023/01/12 07:57:36;;;;;;;66.68;43.22;;;128.80;2252.80;;;;;;4808604;29;20099;-92
2023/01/12 08:03:35;;;;;;;205.00;101.87;;;128.70;2252.80;;;;;;4810160;29;20080;-93
2023/01/12 08:06:06;;;;;;;108.50;64.30;;;128.80;2252.80;;;;;;4844614;29;20265;-92
2023/01/12 08:08:37;;;;;;;88.88;52.88;;;128.80;2252.80;;;;;;4844408;29;20144;-92
2023/01/12 08:11:08;;;;;;;69.95;47.33;;;128.80;2252.80;;;;;;4844363;29;20034;-93
2023/01/12 08:13:37;;;;;;;77.57;49.88;;;128.90;2252.80;;;;;;4843726;29;20038;-89
2023/01/12 08:16:17;;;;;;;52.13;34.60;;;153.60;2099.20;;;;;;4828284;29;20030;-89
2023/01/12 08:18:56;;;;;;;49.00;31.75;;;153.70;2252.80;;;;;;4828220;29;20494;-90
2023/01/12 08:21:27;;;;;;;54.15;38.35;;;153.70;2176.00;;;;;;4828435;29;20041;-89
2023/01/12 08:23:58;;;;;;;54.65;35.70;;;153.70;2252.80;;;;;;4828191;29;20045;-90
2023/01/12 08:26:31;;;;;;;63.65;42.97;;;153.70;1894.40;;;;;;4828679;29;20122;-90
2023/01/12 08:29:05;;;;;;;65.10;41.90;;;153.80;2252.80;;;;;;4828563;29;20074;-91
2023/01/12 08:31:32;;;;;;;54.35;36.17;;;153.90;2252.80;;;;;;4828273;29;20029;-90
2023/01/12 08:33:57;;;;;;;205.77;111.43;;;153.90;2252.80;;;;;;4831579;29;20071;-91
2023/01/12 08:36:25;;;;;;;106.88;63.28;;;154.10;2252.80;;;;;;4847641;29;20426;-93
2023/01/12 08:41:57;;;;;;;119.78;71.07;;;154.10;2252.80;;;;;;4853403;29;20405;-86
2023/01/12 08:44:24;;;;;;;158.48;95.75;;;154.00;2252.80;;;;;;4902103;29;20032;-90
2023/01/12 08:46:53;;;;;;;118.18;70.95;;;153.70;2252.80;;;;;;4934558;28;20407;-88
2023/01/12 08:49:23;;;;;;;90.70;58.80;;;153.90;2252.80;;;;;;4936214;29;20034;-90
2023/01/12 08:51:49;;;;;;;92.55;55.45;;;153.90;2252.80;;;;;;4937024;29;20471;-87
2023/01/12 08:54:18;;;;;;;124.82;86.38;;;154.10;2252.80;;;;;;4940227;29;20027;-89
2023/01/12 08:56:44;;;;;;;81.80;57.58;;;154.00;2252.80;;;;;;4937069;29;20505;-87
2023/01/12 08:59:11;;;;;;;81.55;58.10;;;154.10;2252.80;;;;;;4940216;29;20039;-87
2023/01/12 09:01:36;;;;;;;84.80;56.63;;;154.00;2252.80;;;;;;4936894;29;20476;-86
2023/01/12 09:04:02;;;;;;;119.63;77.75;;;154.00;2252.80;;;;;;4939914;29;20035;-89
2023/01/12 09:06:31;;;;;;;105.57;72.75;;;154.10;2252.80;;;;;;4938707;29;20039;-87
2023/01/12 09:08:59;;;;;;;123.50;77.50;;;154.00;2252.80;;;;;;4938949;29;20031;-87
2023/01/12 09:11:26;;;;;;;108.43;72.05;;;154.00;2252.80;;;;;;4938302;29;20027;-86
2023/01/12 09:13:52;;;;;;;105.95;67.93;;;154.00;2252.80;;;;;;4932639;29;20126;-88
2023/01/12 09:16:18;;;;;;;121.32;79.45;;;154.10;2252.80;;;;;;4939023;29;20106;-87
2023/01/12 09:18:45;;;;;;;67.63;41.30;;;154.20;2252.80;;;;;;4935552;29;20077;-87
2023/01/12 09:21:15;;;;;;;74.45;44.58;;;;;;;;;;4939525;29;20031;-89
2023/01/12 09:23:42;;;;;;;57.00;37.08;;;;;;;;;;4935826;29;20531;-88
2023/01/12 09:26:13;;;;;;;57.70;36.92;;;154.50;2252.80;;;;;;4939835;29;20600;-89
2023/01/12 09:28:39;;;;;;;35.30;25.67;;;154.30;2252.80;;;;;;4936347;29;20039;-88
2023/01/12 09:31:10;;;;;;;38.75;26.75;;;154.10;2252.80;;;;;;4939920;29;20396;-87
2023/01/12 09:33:37;;;;;;;49.78;31.02;;;154.30;2252.80;;;;;;4935915;29;20031;-88
2023/01/12 09:36:14;;;;;;;46.33;30.00;;;154.10;2252.80;;;;;;4939128;29;20148;-87
2023/01/12 09:38:43;;;;;;;38.45;22.92;;;154.20;2252.80;;;;;;4938970;29;20031;-87
2023/01/12 09:46:57;;;;;;;41.58;24.55;;;154.20;2252.80;;;;;;4938080;29;20035;-91
2023/01/12 09:46:59;;;;;;;56.35;38.17;;;154.30;2252.80;;;;;;4963168;28;20077;-86
2023/01/12 09:49:34;;;;;;;52.50;34.78;;;154.30;2252.80;;;;;;4947159;28;20031;-84
2023/01/12 09:52:11;;;;;;;49.97;35.85;;;154.40;2252.80;;;;;;4947787;28;20034;-87
2023/01/12 09:54:37;;;;;;;27.02;19.80;;;154.40;2252.80;;;;;;4929738;29;20024;-86
2023/01/12 09:57:46;;;;;;;33.80;23.20;;;154.40;2252.80;;;;;;4936593;29;20456;-88
2023/01/12 10:00:16;;;;;;;74.20;48.83;;;154.40;2252.80;;;;;;4939502;29;20031;-88
2023/01/12 10:02:47;;;;;;;54.97;37.50;;;154.40;2252.80;;;;;;4941441;28;20023;-90
2023/01/12 10:05:41;;;;;;;29.77;21.02;;;154.40;2252.80;;;;;;4936374;29;20035;-86
2023/01/12 10:08:28;;;;;;;40.00;24.20;;;154.30;2252.80;;;;;;4938881;29;20078;-80
2023/01/12 10:11:06;;;;;;;41.03;26.75;;;154.10;2252.80;;;;;;4938902;29;20458;-87
2023/01/12 10:14:18;;;;;;;48.08;31.95;;;154.30;2252.80;;;;;;4939210;29;20030;-83
2023/01/12 10:17:08;;;;;;;54.05;34.08;;;154.30;2252.80;;;;;;4939081;29;20138;-86
2023/01/12 10:19:53;;;;;;;34.90;23.80;;;154.30;2252.80;;;;;;4939655;29;20035;-86
2023/01/12 10:22:38;;;;;;;31.67;20.42;;;154.30;2252.80;;;;;;4946699;28;20023;-89
2023/01/12 10:25:26;;;;;;;32.10;19.65;;;154.20;2252.80;;;;;;4963449;28;20015;-84
2023/01/12 10:27:55;;;;;;;42.22;27.90;;;154.30;2252.80;;;;;;4941093;29;20031;-90
2023/01/12 10:30:39;;;;;;;45.60;30.95;;;154.30;2252.80;;;;;;4951014;29;20068;-92
2023/01/12 10:33:23;;;;;;;38.78;26.17;;;154.40;2252.80;;;;;;4941116;29;20062;-91
2023/01/12 10:35:51;;;;;;;34.47;22.05;;;154.30;2252.80;;;;;;4940096;29;20101;-93
2023/01/12 10:38:32;;;;;;;34.95;20.90;;;154.40;2252.80;;;;;;4939758;29;20035;-93
2023/01/12 10:41:19;;;;;;;30.55;20.17;;;154.30;2252.80;;;;;;4939868;29;20488;-92
2023/01/12 10:44:04;;;;;;;25.77;17.55;;;154.40;2252.80;;;;;;4940202;29;20051;-91
2023/01/12 10:46:32;;;;;;;25.83;16.90;;;154.40;2252.80;;;;;;4939444;29;20027;-89
2023/01/12 10:49:20;;;;;;;26.30;18.30;;;154.40;2252.80;;;;;;4939229;29;20034;-88
2023/01/12 10:52:18;;;;;;;37.22;25.60;;;154.40;2252.80;;;;;;4938953;29;20020;-91
2023/01/12 10:54:48;;;;;;;44.67;25.20;;;154.40;2252.80;;;;;;4939657;29;20027;-87
2023/01/12 10:57:16;;;;;;;40.05;22.98;;;154.40;2252.80;;;;;;4937026;29;20039;-86
2023/01/12 10:59:53;;;;;;;29.92;20.35;;;154.40;2252.80;;;;;;4942192;29;20031;-88
2023/01/12 11:02:19;;;;;;;31.33;20.98;;;154.50;2252.80;;;;;;4941384;29;20039;-87
2023/01/12 11:04:46;;;;;;;25.40;18.75;;;154.50;2252.80;;;;;;4939104;29;20019;-87
2023/01/12 11:07:25;;;;;;;45.42;27.25;;;154.50;2252.80;;;;;;4939119;29;20034;-88
2023/01/12 11:09:56;;;;;;;31.73;21.83;;;154.50;2252.80;;;;;;4939259;29;20032;-89
2023/01/12 11:12:35;;;;;;;42.90;28.48;;;154.50;2252.80;;;;;;4949682;28;20457;-89
2023/01/12 11:15:08;;;;;;;39.72;27.40;;;154.50;2252.80;;;;;;4935004;28;20027;-88
2023/01/12 11:17:38;;;;;;;44.78;27.42;;;154.50;2252.80;;;;;;4943969;29;20040;-87
2023/01/12 11:20:19;;;;;;;30.67;21.67;;;154.50;2252.80;;;;;;4939242;28;20027;-89
2023/01/12 11:22:46;;;;;;;40.40;24.25;;;154.50;2252.80;;;;;;4929076;28;20019;-88
2023/01/12 11:25:16;;;;;;;55.45;30.70;;;154.50;2252.80;;;;;;4937952;28;20027;-86
2023/01/12 11:27:48;;;;;;;82.80;43.90;;;179.20;2252.80;;;;;;4945046;28;20471;-86
2023/01/12 11:30:39;;;;;;;63.60;36.47;;;179.20;2252.80;;;;;;4934050;28;20421;-88
2023/01/12 11:33:17;;;;;;;45.45;27.02;;;179.20;2252.80;;;;;;4935469;28;20276;-86
2023/01/12 11:36:14;;;;;;;39.38;24.52;;;179.30;2252.80;;;;;;4943147;29;20568;-88
2023/01/12 11:39:05;;;;;;;34.35;21.55;;;179.30;2252.80;;;;;;4938852;29;20035;-82
2023/01/12 11:44:46;;;;;;;41.00;26.67;;;179.30;2252.80;;;;;;4948775;29;20054;-90
2023/01/12 11:47:14;;;;;;;28.90;22.70;;;179.20;2252.80;;;;;;4949315;28;20031;-87
2023/01/12 11:49:40;;;;;;;27.20;19.52;;;179.30;2252.80;;;;;;4932461;29;20034;-84
2023/01/12 11:52:12;;;;;;;26.15;17.65;;;179.30;2252.80;;;;;;4942137;28;20487;-88
2023/01/12 11:54:39;;;;;;;21.63;15.32;;;179.20;2252.80;;;;;;4930838;29;20024;-86
2023/01/12 11:57:26;;;;;;;63.78;42.83;;;179.20;2252.80;;;;;;4938917;29;20114;-88
2023/01/12 12:00:17;;;;;;;30.10;20.83;;;154.20;2252.80;;;;;;4941493;29;20023;-90
2023/01/12 12:03:24;;;;;;;23.58;14.73;;;154.50;2252.80;;;;;;4920321;29;20039;-88
2023/01/12 12:06:23;;;;;;;23.90;16.45;;;154.50;2252.80;;;;;;4929465;28;20059;-89
2023/01/12 12:09:02;;;;;;;24.92;17.75;;;179.20;2252.80;;;;;;4929812;29;20502;-86
2023/01/12 12:11:40;;;;;;;25.42;18.00;;;179.30;2252.80;;;;;;4944597;28;20030;-85
2023/01/12 12:14:18;;;;;;;19.80;13.98;;;;;;;;;;4953988;29;20023;-85
2023/01/12 12:17:07;;;;;;;20.15;13.52;;;;;;;;;;4942606;28;20027;-87
2023/01/12 12:19:36;;;;;;;22.42;16.00;;;;;;;;;;4936895;28;20562;-89
2023/01/12 12:22:02;;;;;;;29.70;20.23;;;;;;;;;;4937985;29;20079;-87
2023/01/12 12:24:37;;;;;;;44.42;28.15;;;179.50;2252.80;;;;;;4928117;29;20379;-88
2023/01/12 12:27:35;;;;;;;50.60;28.00;;;179.40;2252.80;;;;;;4930341;29;20027;-85
2023/01/12 12:30:31;;;;;;;34.80;22.00;;;179.40;2252.80;;;;;;4940386;29;20035;-92
2023/01/12 12:33:10;;;;;;;35.97;23.15;;;179.40;2252.80;;;;;;4941814;29;20102;-91
2023/01/12 12:35:54;;;;;;;33.45;22.40;;;179.40;2252.80;;;;;;4941926;29;20055;-91
2023/01/12 12:38:45;;;;;;;24.88;16.05;;;179.50;2252.80;;;;;;4941270;29;20035;-91
2023/01/12 12:47:58;;;;;;;25.38;17.25;;;179.30;2252.80;;;;;;4919951;29;20111;-91
2023/01/12 12:50:32;;;;;;;28.05;19.02;;;179.30;2252.80;;;;;;4917838;29;20028;-91
2023/01/12 12:53:03;;;;;;;27.98;18.20;;;179.30;2252.80;;;;;;4918915;29;20473;-90
2023/01/12 12:55:30;;;;;;;31.17;19.98;;;179.30;2252.80;;;;;;4934964;29;20111;-91
2023/01/12 12:58:05;;;;;;;22.10;15.38;;;179.30;2252.80;;;;;;4919290;29;20032;-90
2023/01/12 13:00:42;;;;;;;24.02;16.50;;;179.30;2252.80;;;;;;4908636;29;20457;-91
2023/01/12 13:03:09;;;;;;;30.33;20.48;;;179.30;2252.80;;;;;;4918814;29;20024;-92
2023/01/12 13:05:41;;;;;;;62.03;35.63;;;179.30;2252.80;;;;;;4932238;29;20026;-91
2023/01/12 13:08:25;;;;;;;80.68;47.15;;;179.20;2252.80;;;;;;4937616;29;20027;-93
2023/01/12 13:10:54;;;;;;;105.85;57.40;;;179.30;2252.80;;;;;;4922459;29;20028;-92
2023/01/12 13:13:26;;;;;;;76.72;43.42;;;179.30;2252.80;;;;;;4918174;29;20118;-93
2023/01/12 13:16:14;;;;;;;46.30;29.10;;;179.40;2252.80;;;;;;4918557;29;20032;-90
2023/01/12 13:18:49;;;;;;;41.35;24.98;;;179.30;2252.80;;;;;;4917573;29;20052;-91
2023/01/12 13:21:56;;;;;;;39.90;23.73;;;179.40;2252.80;;;;;;4917471;29;20464;-91
2023/01/12 13:24:30;;;;;;;31.77;21.77;;;179.30;2252.80;;;;;;4885273;29;20067;-90
2023/01/12 13:26:59;;;;;;;35.05;21.25;;;179.40;2252.80;;;;;;4930216;29;20028;-92
2023/01/12 13:29:36;;;;;;;32.75;22.77;;;179.40;2252.80;;;;;;4922345;29;20123;-89
2023/01/12 13:32:30;;;;;;;47.78;34.05;;;179.40;2252.80;;;;;;4926786;29;20020;-88
2023/01/12 13:34:55;;;;;;;60.40;40.13;;;179.30;2252.80;;;;;;4927691;29;20047;-87
2023/01/12 13:37:35;;;;;;;54.15;37.15;;;154.50;2252.80;;;;;;4929555;29;20063;-90
2023/01/12 13:40:30;;;;;;;63.78;43.17;;;154.20;2252.80;;;;;;4924638;29;20036;-89
2023/01/12 13:43:15;;;;;;;85.75;57.00;;;154.40;2252.80;;;;;;4894208;29;20480;-92
2023/01/12 13:46:19;;;;;;;81.13;54.15;;;154.30;2252.80;;;;;;4937241;29;20098;-93
2023/01/12 13:48:48;;;;;;;91.78;58.38;;;154.40;2176.00;;;;;;4936434;29;20078;-93
2023/01/12 13:51:26;;;;;;;81.20;52.45;;;154.50;2252.80;;;;;;4937495;29;20027;-95
2023/01/12 13:53:59;;;;;;;84.15;55.50;;;154.50;2252.80;;;;;;4934329;29;20042;-93
2023/01/12 13:56:25;;;;;;;81.97;51.50;;;154.50;2252.80;;;;;;4930600;29;20055;-92
2023/01/12 13:59:03;;;;;;;83.63;52.72;;;154.50;2252.80;;;;;;4917945;29;20032;-94
2023/01/12 14:01:31;;;;;;;89.53;57.05;;;154.40;2252.80;;;;;;4928444;29;20439;-94
2023/01/12 14:04:06;;;;;;;92.63;58.92;;;154.40;2252.80;;;;;;4929774;29;20523;-95
2023/01/12 14:07:06;;;;;;;102.68;66.78;;;154.30;2252.80;;;;;;4918575;29;20032;-95
2023/01/12 14:10:15;;;;;;;138.57;86.93;;;154.20;2252.80;;;;;;4918651;29;20083;-95
2023/01/12 14:13:09;;;;;;;83.78;51.42;;;154.30;2252.80;;;;;;4917513;29;20036;-92
2023/01/12 14:18:27;;;;;;;43.95;28.27;;;154.30;2252.80;;;;;;4920663;29;20421;-93
2023/01/12 14:20:58;;;;;;;39.90;26.70;;;154.30;2252.80;;;;;;4956162;29;20031;-93
2023/01/12 14:23:34;;;;;;;36.35;24.95;;;154.30;2252.80;;;;;;4956789;29;20114;-92
2023/01/12 14:26:24;;;;;;;51.33;33.05;;;154.30;2252.80;;;;;;4956357;29;20033;-93
2023/01/12 14:28:51;;;;;;;41.85;28.65;;;154.40;2252.80;;;;;;4933374;29;20028;-92
2023/01/12 14:31:36;;;;;;;36.72;24.75;;;154.50;2252.80;;;;;;4936433;29;20055;-94
2023/01/12 14:34:04;;;;;;;44.65;29.58;;;154.40;2252.80;;;;;;4937059;29;20028;-92
2023/01/12 14:36:41;;;;;;;29.63;21.33;;;154.40;2252.80;;;;;;4937837;29;20127;-92
2023/01/12 14:39:15;;;;;;;26.65;18.85;;;154.40;2252.80;;;;;;4937794;29;20063;-90
2023/01/12 14:47:27;;;;;;;34.10;20.73;;;154.40;2252.80;;;;;;4970599;28;20522;-88
2023/01/12 14:49:53;;;;;;;32.20;22.67;;;154.40;2252.80;;;;;;4925517;29;20388;-92
2023/01/12 14:52:28;;;;;;;27.77;19.77;;;154.40;2252.80;;;;;;4927401;28;20032;-91
2023/01/12 14:54:54;;;;;;;24.98;17.75;;;154.40;2252.80;;;;;;4941318;29;20035;-93
2023/01/12 14:57:22;;;;;;;24.63;16.45;;;154.30;2252.80;;;;;;4944394;29;20039;-90
2023/01/12 14:59:49;;;;;;;23.65;17.05;;;154.30;2252.80;;;;;;4920902;29;20032;-91
2023/01/12 15:02:19;;;;;;;24.25;17.58;;;154.40;2252.80;;;;;;4920990;29;20032;-93